sensor_id;sensor_type;location;lat;lon;timestamp;P1;durP1;ratioP1;P2;durP2;ratioP2
65545;SDS011;52177;55.968;37.498;2023-05-29T00:00:17;6.65;;;3.70;;
65545;SDS011;52177;55.968;37.498;2023-05-29T00:00:47;6.95;;;4.07;;
65545;SDS011;52177;55.968;37.498;2023-05-29T00:01:18;7.07;;;3.75;;
65545;SDS011;52177;55.968;37.498;2023-05-29T00:01:49;6.60;;;4.07;;
65545;SDS011;52177;55.968;37.498;2023-05-29T00:02:19;5.70;;;4.07;;
65545;SDS011;52177;55.968;37.498;2023-05-29T00:02:50;5.85;;;3.67;;
65545;SDS011;52177;55.968;37.498;2023-05-29T00:03:20;6.70;;;3.75;;
65545;SDS011;52177;55.968;37.498;2023-05-29T00:03:51;10.93;;;4.20;;
65545;SDS011;52177;55.968;37.498;2023-05-29T00:04:22;5.72;;;3.97;;
65545;SDS011;52177;55.968;37.498;2023-05-29T00:04:52;5.28;;;3.28;;
65545;SDS011;52177;55.968;37.498;2023-05-29T00:05:23;6.82;;;4.22;;
65545;SDS011;52177;55.968;37.498;2023-05-29T00:05:54;5.65;;;3.75;;
65545;SDS011;52177;55.968;37.498;2023-05-29T00:06:24;7.43;;;3.90;;
65545;SDS011;52177;55.968;37.498;2023-05-29T00:06:54;6.43;;;3.70;;
65545;SDS011;52177;55.968;37.498;2023-05-29T00:07:25;6.30;;;3.88;;
65545;SDS011;52177;55.968;37.498;2023-05-29T00:07:55;7.03;;;3.58;;
65545;SDS011;52177;55.968;37.498;2023-05-29T00:08:26;7.97;;;3.40;;
65545;SDS011;52177;55.968;37.498;2023-05-29T00:08:56;5.88;;;3.60;;
65545;SDS011;52177;55.968;37.498;2023-05-29T00:09:27;5.68;;;3.60;;
65545;SDS011;52177;55.968;37.498;2023-05-29T00:09:58;6.75;;;3.33;;
65545;SDS011;52177;55.968;37.498;2023-05-29T00:10:28;5.90;;;3.58;;
65545;SDS011;52177;55.968;37.498;2023-05-29T00:11:01;6.97;;;3.35;;
65545;SDS011;52177;55.968;37.498;2023-05-29T00:11:31;7.72;;;3.50;;
65545;SDS011;52177;55.968;37.498;2023-05-29T00:12:01;10.13;;;3.50;;
65545;SDS011;52177;55.968;37.498;2023-05-29T00:12:32;5.22;;;3.53;;
65545;SDS011;52177;55.968;37.498;2023-05-29T00:13:03;7.60;;;3.47;;
65545;SDS011;52177;55.968;37.498;2023-05-29T00:13:33;5.45;;;3.53;;
65545;SDS011;52177;55.968;37.498;2023-05-29T00:14:04;7.40;;;4.13;;
65545;SDS011;52177;55.968;37.498;2023-05-29T00:14:34;4.57;;;3.70;;
65545;SDS011;52177;55.968;37.498;2023-05-29T00:15:05;5.57;;;4.00;;
65545;SDS011;52177;55.968;37.498;2023-05-29T00:15:36;8.10;;;3.58;;
65545;SDS011;52177;55.968;37.498;2023-05-29T00:16:06;5.15;;;4.03;;
65545;SDS011;52177;55.968;37.498;2023-05-29T00:16:39;8.77;;;3.58;;
65545;SDS011;52177;55.968;37.498;2023-05-29T00:17:09;7.07;;;3.85;;
65545;SDS011;52177;55.968;37.498;2023-05-29T00:17:42;5.55;;;3.10;;
65545;SDS011;52177;55.968;37.498;2023-05-29T00:18:13;8.85;;;4.47;;
65545;SDS011;52177;55.968;37.498;2023-05-29T00:18:43;9.70;;;3.78;;
65545;SDS011;52177;55.968;37.498;2023-05-29T00:19:16;4.63;;;3.50;;
65545;SDS011;52177;55.968;37.498;2023-05-29T00:19:47;8.55;;;3.67;;
65545;SDS011;52177;55.968;37.498;2023-05-29T00:20:17;7.68;;;3.83;;
65545;SDS011;52177;55.968;37.498;2023-05-29T00:20:48;5.32;;;3.40;;
65545;SDS011;52177;55.968;37.498;2023-05-29T00:21:18;6.70;;;3.75;;
65545;SDS011;52177;55.968;37.498;2023-05-29T00:21:49;8.40;;;3.85;;
65545;SDS011;52177;55.968;37.498;2023-05-29T00:22:19;9.13;;;3.92;;
65545;SDS011;52177;55.968;37.498;2023-05-29T00:22:50;8.95;;;4.00;;
65545;SDS011;52177;55.968;37.498;2023-05-29T00:23:20;7.85;;;3.45;;
65545;SDS011;52177;55.968;37.498;2023-05-29T00:23:51;8.02;;;3.70;;
65545;SDS011;52177;55.968;37.498;2023-05-29T00:24:22;5.20;;;3.63;;
65545;SDS011;52177;55.968;37.498;2023-05-29T00:24:52;6.72;;;4.03;;
65545;SDS011;52177;55.968;37.498;2023-05-29T00:25:23;5.72;;;3.88;;
65545;SDS011;52177;55.968;37.498;2023-05-29T00:25:53;7.72;;;4.00;;
65545;SDS011;52177;55.968;37.498;2023-05-29T00:26:23;7.50;;;3.50;;
65545;SDS011;52177;55.968;37.498;2023-05-29T00:26:54;6.65;;;3.78;;
65545;SDS011;52177;55.968;37.498;2023-05-29T00:27:24;8.30;;;4.10;;
65545;SDS011;52177;55.968;37.498;2023-05-29T00:27:54;5.82;;;3.20;;
65545;SDS011;52177;55.968;37.498;2023-05-29T00:28:25;5.30;;;3.40;;
65545;SDS011;52177;55.968;37.498;2023-05-29T00:28:56;5.20;;;3.70;;
65545;SDS011;52177;55.968;37.498;2023-05-29T00:29:26;7.03;;;4.00;;
65545;SDS011;52177;55.968;37.498;2023-05-29T00:29:57;7.35;;;3.60;;
65545;SDS011;52177;55.968;37.498;2023-05-29T00:30:27;8.00;;;3.30;;
65545;SDS011;52177;55.968;37.498;2023-05-29T00:30:58;7.25;;;3.92;;
65545;SDS011;52177;55.968;37.498;2023-05-29T00:31:28;5.05;;;3.65;;
65545;SDS011;52177;55.968;37.498;2023-05-29T00:31:58;11.70;;;3.78;;
65545;SDS011;52177;55.968;37.498;2023-05-29T00:32:29;10.07;;;3.67;;
65545;SDS011;52177;55.968;37.498;2023-05-29T00:32:59;7.15;;;3.50;;
65545;SDS011;52177;55.968;37.498;2023-05-29T00:33:29;5.75;;;3.83;;
65545;SDS011;52177;55.968;37.498;2023-05-29T00:34:00;5.45;;;3.40;;
65545;SDS011;52177;55.968;37.498;2023-05-29T00:34:30;5.78;;;3.38;;
65545;SDS011;52177;55.968;37.498;2023-05-29T00:35:01;6.07;;;3.28;;
65545;SDS011;52177;55.968;37.498;2023-05-29T00:35:31;4.28;;;3.63;;
65545;SDS011;52177;55.968;37.498;2023-05-29T00:36:02;8.93;;;4.10;;
65545;SDS011;52177;55.968;37.498;2023-05-29T00:36:33;5.40;;;3.63;;
65545;SDS011;52177;55.968;37.498;2023-05-29T00:37:05;6.53;;;3.47;;
65545;SDS011;52177;55.968;37.498;2023-05-29T00:37:35;5.90;;;3.30;;
65545;SDS011;52177;55.968;37.498;2023-05-29T00:38:05;5.38;;;3.50;;
65545;SDS011;52177;55.968;37.498;2023-05-29T00:38:36;7.30;;;3.35;;
65545;SDS011;52177;55.968;37.498;2023-05-29T00:39:06;8.13;;;3.67;;
65545;SDS011;52177;55.968;37.498;2023-05-29T00:39:36;5.60;;;3.70;;
65545;SDS011;52177;55.968;37.498;2023-05-29T00:40:07;6.53;;;3.70;;
65545;SDS011;52177;55.968;37.498;2023-05-29T00:40:39;5.78;;;3.60;;
65545;SDS011;52177;55.968;37.498;2023-05-29T00:41:16;7.78;;;3.55;;
65545;SDS011;52177;55.968;37.498;2023-05-29T00:41:46;5.47;;;3.10;;
65545;SDS011;52177;55.968;37.498;2023-05-29T00:42:20;5.75;;;3.30;;
65545;SDS011;52177;55.968;37.498;2023-05-29T00:42:52;5.60;;;3.45;;
65545;SDS011;52177;55.968;37.498;2023-05-29T00:43:22;11.55;;;3.63;;
65545;SDS011;52177;55.968;37.498;2023-05-29T00:43:52;5.65;;;3.50;;
65545;SDS011;52177;55.968;37.498;2023-05-29T00:44:23;11.00;;;3.97;;
65545;SDS011;52177;55.968;37.498;2023-05-29T00:44:53;6.13;;;3.33;;
65545;SDS011;52177;55.968;37.498;2023-05-29T00:45:23;5.93;;;3.35;;
65545;SDS011;52177;55.968;37.498;2023-05-29T00:45:54;6.15;;;4.05;;
65545;SDS011;52177;55.968;37.498;2023-05-29T00:46:24;6.63;;;3.50;;
65545;SDS011;52177;55.968;37.498;2023-05-29T00:46:55;6.97;;;3.67;;
65545;SDS011;52177;55.968;37.498;2023-05-29T00:47:26;11.13;;;3.90;;
65545;SDS011;52177;55.968;37.498;2023-05-29T00:47:57;5.25;;;3.17;;
65545;SDS011;52177;55.968;37.498;2023-05-29T00:48:28;5.95;;;3.35;;
65545;SDS011;52177;55.968;37.498;2023-05-29T00:48:58;5.50;;;3.70;;
65545;SDS011;52177;55.968;37.498;2023-05-29T00:49:30;10.45;;;3.50;;
65545;SDS011;52177;55.968;37.498;2023-05-29T00:50:01;8.82;;;4.07;;
65545;SDS011;52177;55.968;37.498;2023-05-29T00:50:32;7.10;;;3.20;;
65545;SDS011;52177;55.968;37.498;2023-05-29T00:51:03;4.95;;;3.15;;
65545;SDS011;52177;55.968;37.498;2023-05-29T00:51:35;6.82;;;3.17;;
65545;SDS011;52177;55.968;37.498;2023-05-29T00:52:06;5.78;;;4.47;;
65545;SDS011;52177;55.968;37.498;2023-05-29T00:52:39;5.95;;;3.55;;
65545;SDS011;52177;55.968;37.498;2023-05-29T00:53:11;7.13;;;3.55;;
65545;SDS011;52177;55.968;37.498;2023-05-29T00:53:41;7.43;;;3.70;;
65545;SDS011;52177;55.968;37.498;2023-05-29T00:54:14;6.90;;;3.40;;
65545;SDS011;52177;55.968;37.498;2023-05-29T00:54:58;5.70;;;3.25;;
65545;SDS011;52177;55.968;37.498;2023-05-29T00:55:31;5.05;;;3.08;;
65545;SDS011;52177;55.968;37.498;2023-05-29T00:56:01;9.05;;;3.80;;
65545;SDS011;52177;55.968;37.498;2023-05-29T00:56:32;6.88;;;3.20;;
65545;SDS011;52177;55.968;37.498;2023-05-29T00:57:05;6.82;;;3.03;;
65545;SDS011;52177;55.968;37.498;2023-05-29T00:57:35;9.05;;;3.60;;
65545;SDS011;52177;55.968;37.498;2023-05-29T00:58:07;6.30;;;3.55;;
65545;SDS011;52177;55.968;37.498;2023-05-29T00:58:38;4.75;;;3.30;;
65545;SDS011;52177;55.968;37.498;2023-05-29T00:59:09;4.32;;;3.03;;
65545;SDS011;52177;55.968;37.498;2023-05-29T00:59:41;5.03;;;3.30;;
65545;SDS011;52177;55.968;37.498;2023-05-29T01:00:12;4.63;;;3.08;;
65545;SDS011;52177;55.968;37.498;2023-05-29T01:00:44;4.28;;;2.88;;
65545;SDS011;52177;55.968;37.498;2023-05-29T01:01:15;4.00;;;3.00;;
65545;SDS011;52177;55.968;37.498;2023-05-29T01:01:50;4.72;;;2.83;;
65545;SDS011;52177;55.968;37.498;2023-05-29T01:02:21;4.90;;;3.10;;
65545;SDS011;52177;55.968;37.498;2023-05-29T01:02:52;5.72;;;2.65;;
65545;SDS011;52177;55.968;37.498;2023-05-29T01:03:23;5.13;;;3.20;;
65545;SDS011;52177;55.968;37.498;2023-05-29T01:03:55;4.50;;;2.90;;
65545;SDS011;52177;55.968;37.498;2023-05-29T01:04:27;7.40;;;4.00;;
65545;SDS011;52177;55.968;37.498;2023-05-29T01:04:57;4.88;;;2.88;;
65545;SDS011;52177;55.968;37.498;2023-05-29T01:05:28;8.05;;;3.28;;
65545;SDS011;52177;55.968;37.498;2023-05-29T01:05:59;8.00;;;3.00;;
65545;SDS011;52177;55.968;37.498;2023-05-29T01:06:30;7.03;;;3.20;;
65545;SDS011;52177;55.968;37.498;2023-05-29T01:07:01;3.80;;;2.90;;
65545;SDS011;52177;55.968;37.498;2023-05-29T01:07:34;4.78;;;3.20;;
65545;SDS011;52177;55.968;37.498;2023-05-29T01:08:05;5.65;;;3.45;;
65545;SDS011;52177;55.968;37.498;2023-05-29T01:08:35;9.20;;;3.45;;
65545;SDS011;52177;55.968;37.498;2023-05-29T01:09:06;4.90;;;2.97;;
65545;SDS011;52177;55.968;37.498;2023-05-29T01:09:36;5.00;;;3.30;;
65545;SDS011;52177;55.968;37.498;2023-05-29T01:10:07;6.82;;;3.08;;
65545;SDS011;52177;55.968;37.498;2023-05-29T01:10:39;10.52;;;3.30;;
65545;SDS011;52177;55.968;37.498;2023-05-29T01:11:31;5.05;;;3.00;;
65545;SDS011;52177;55.968;37.498;2023-05-29T01:13:25;4.60;;;3.10;;
65545;SDS011;52177;55.968;37.498;2023-05-29T01:14:00;7.78;;;3.25;;
65545;SDS011;52177;55.968;37.498;2023-05-29T01:14:41;6.03;;;2.65;;
65545;SDS011;52177;55.968;37.498;2023-05-29T01:16:43;8.32;;;3.40;;
65545;SDS011;52177;55.968;37.498;2023-05-29T01:17:26;5.15;;;2.67;;
65545;SDS011;52177;55.968;37.498;2023-05-29T01:19:00;4.65;;;2.70;;
65545;SDS011;52177;55.968;37.498;2023-05-29T01:20:02;5.38;;;3.92;;
65545;SDS011;52177;55.968;37.498;2023-05-29T01:21:23;4.07;;;2.85;;
65545;SDS011;52177;55.968;37.498;2023-05-29T01:22:18;7.38;;;3.15;;
65545;SDS011;52177;55.968;37.498;2023-05-29T01:23:21;5.40;;;2.65;;
65545;SDS011;52177;55.968;37.498;2023-05-29T01:25:19;6.05;;;3.25;;
65545;SDS011;52177;55.968;37.498;2023-05-29T01:26:45;6.95;;;3.10;;
65545;SDS011;52177;55.968;37.498;2023-05-29T01:27:28;5.07;;;2.85;;
65545;SDS011;52177;55.968;37.498;2023-05-29T01:28:01;4.32;;;3.05;;
65545;SDS011;52177;55.968;37.498;2023-05-29T01:28:51;5.50;;;3.30;;
65545;SDS011;52177;55.968;37.498;2023-05-29T01:29:23;4.30;;;3.10;;
65545;SDS011;52177;55.968;37.498;2023-05-29T01:29:56;4.03;;;2.60;;
65545;SDS011;52177;55.968;37.498;2023-05-29T01:30:28;5.47;;;2.97;;
65545;SDS011;52177;55.968;37.498;2023-05-29T01:31:03;5.05;;;2.70;;
65545;SDS011;52177;55.968;37.498;2023-05-29T01:31:34;9.20;;;2.90;;
65545;SDS011;52177;55.968;37.498;2023-05-29T01:32:07;8.52;;;3.10;;
65545;SDS011;52177;55.968;37.498;2023-05-29T01:32:38;5.47;;;3.05;;
65545;SDS011;52177;55.968;37.498;2023-05-29T01:33:09;4.47;;;2.90;;
65545;SDS011;52177;55.968;37.498;2023-05-29T01:33:40;6.32;;;2.85;;
65545;SDS011;52177;55.968;37.498;2023-05-29T01:34:11;7.50;;;3.22;;
65545;SDS011;52177;55.968;37.498;2023-05-29T01:34:41;6.63;;;3.10;;
65545;SDS011;52177;55.968;37.498;2023-05-29T01:35:12;5.53;;;3.42;;
65545;SDS011;52177;55.968;37.498;2023-05-29T01:35:42;6.75;;;2.97;;
65545;SDS011;52177;55.968;37.498;2023-05-29T01:36:12;6.28;;;2.92;;
65545;SDS011;52177;55.968;37.498;2023-05-29T01:36:43;7.57;;;3.10;;
65545;SDS011;52177;55.968;37.498;2023-05-29T01:37:13;8.52;;;3.30;;
65545;SDS011;52177;55.968;37.498;2023-05-29T01:37:44;4.90;;;3.22;;
65545;SDS011;52177;55.968;37.498;2023-05-29T01:38:14;4.53;;;3.05;;
65545;SDS011;52177;55.968;37.498;2023-05-29T01:38:44;4.68;;;3.20;;
65545;SDS011;52177;55.968;37.498;2023-05-29T01:39:15;2.65;;;2.45;;
65545;SDS011;52177;55.968;37.498;2023-05-29T01:39:46;6.05;;;3.10;;
65545;SDS011;52177;55.968;37.498;2023-05-29T01:40:17;5.80;;;3.05;;
65545;SDS011;52177;55.968;37.498;2023-05-29T01:40:47;9.75;;;3.53;;
65545;SDS011;52177;55.968;37.498;2023-05-29T01:41:18;6.38;;;3.00;;
65545;SDS011;52177;55.968;37.498;2023-05-29T01:41:51;6.35;;;2.90;;
65545;SDS011;52177;55.968;37.498;2023-05-29T01:42:22;3.70;;;2.85;;
65545;SDS011;52177;55.968;37.498;2023-05-29T01:42:52;3.42;;;2.90;;
65545;SDS011;52177;55.968;37.498;2023-05-29T01:43:23;4.75;;;2.67;;
65545;SDS011;52177;55.968;37.498;2023-05-29T01:43:53;5.35;;;2.85;;
65545;SDS011;52177;55.968;37.498;2023-05-29T01:44:26;4.97;;;3.25;;
65545;SDS011;52177;55.968;37.498;2023-05-29T01:44:58;8.88;;;3.47;;
65545;SDS011;52177;55.968;37.498;2023-05-29T01:45:29;5.22;;;3.20;;
65545;SDS011;52177;55.968;37.498;2023-05-29T01:46:00;5.97;;;3.10;;
65545;SDS011;52177;55.968;37.498;2023-05-29T01:46:31;7.05;;;2.83;;
65545;SDS011;52177;55.968;37.498;2023-05-29T01:47:01;6.72;;;3.33;;
65545;SDS011;52177;55.968;37.498;2023-05-29T01:47:33;3.30;;;3.00;;
65545;SDS011;52177;55.968;37.498;2023-05-29T01:48:04;4.90;;;3.38;;
65545;SDS011;52177;55.968;37.498;2023-05-29T01:48:36;3.72;;;3.22;;
65545;SDS011;52177;55.968;37.498;2023-05-29T01:49:06;3.60;;;2.95;;
65545;SDS011;52177;55.968;37.498;2023-05-29T01:49:38;5.07;;;3.13;;
65545;SDS011;52177;55.968;37.498;2023-05-29T01:50:10;4.82;;;3.38;;
65545;SDS011;52177;55.968;37.498;2023-05-29T01:50:43;5.57;;;2.95;;
65545;SDS011;52177;55.968;37.498;2023-05-29T01:51:14;4.40;;;3.38;;
65545;SDS011;52177;55.968;37.498;2023-05-29T01:51:45;5.57;;;3.25;;
65545;SDS011;52177;55.968;37.498;2023-05-29T01:52:15;4.18;;;3.20;;
65545;SDS011;52177;55.968;37.498;2023-05-29T01:52:46;5.68;;;3.20;;
65545;SDS011;52177;55.968;37.498;2023-05-29T01:53:16;5.00;;;3.08;;
65545;SDS011;52177;55.968;37.498;2023-05-29T01:53:46;7.28;;;3.17;;
65545;SDS011;52177;55.968;37.498;2023-05-29T01:54:17;4.90;;;3.00;;
65545;SDS011;52177;55.968;37.498;2023-05-29T01:54:47;4.38;;;2.88;;
65545;SDS011;52177;55.968;37.498;2023-05-29T01:55:18;5.57;;;3.22;;
65545;SDS011;52177;55.968;37.498;2023-05-29T01:55:49;7.47;;;3.45;;
65545;SDS011;52177;55.968;37.498;2023-05-29T01:56:20;3.25;;;2.92;;
65545;SDS011;52177;55.968;37.498;2023-05-29T01:56:51;3.90;;;2.53;;
65545;SDS011;52177;55.968;37.498;2023-05-29T01:57:22;6.05;;;3.78;;
65545;SDS011;52177;55.968;37.498;2023-05-29T01:57:52;6.95;;;3.17;;
65545;SDS011;52177;55.968;37.498;2023-05-29T01:58:24;6.63;;;3.55;;
65545;SDS011;52177;55.968;37.498;2023-05-29T01:58:56;4.72;;;3.03;;
65545;SDS011;52177;55.968;37.498;2023-05-29T01:59:28;6.03;;;3.45;;
65545;SDS011;52177;55.968;37.498;2023-05-29T02:00:00;7.20;;;3.15;;
65545;SDS011;52177;55.968;37.498;2023-05-29T02:00:30;4.85;;;3.00;;
65545;SDS011;52177;55.968;37.498;2023-05-29T02:01:01;4.72;;;3.22;;
65545;SDS011;52177;55.968;37.498;2023-05-29T02:01:33;3.95;;;3.10;;
65545;SDS011;52177;55.968;37.498;2023-05-29T02:02:07;4.55;;;3.25;;
65545;SDS011;52177;55.968;37.498;2023-05-29T02:02:38;3.70;;;3.40;;
65545;SDS011;52177;55.968;37.498;2023-05-29T02:03:09;4.30;;;3.15;;
65545;SDS011;52177;55.968;37.498;2023-05-29T02:03:39;3.63;;;3.00;;
65545;SDS011;52177;55.968;37.498;2023-05-29T02:04:09;5.60;;;3.50;;
65545;SDS011;52177;55.968;37.498;2023-05-29T02:04:40;5.88;;;3.35;;
65545;SDS011;52177;55.968;37.498;2023-05-29T02:05:10;5.00;;;3.22;;
65545;SDS011;52177;55.968;37.498;2023-05-29T02:05:40;3.65;;;3.22;;
65545;SDS011;52177;55.968;37.498;2023-05-29T02:06:11;6.00;;;2.83;;
65545;SDS011;52177;55.968;37.498;2023-05-29T02:06:41;7.25;;;3.78;;
65545;SDS011;52177;55.968;37.498;2023-05-29T02:07:12;3.72;;;3.33;;
65545;SDS011;52177;55.968;37.498;2023-05-29T02:07:42;4.53;;;3.63;;
65545;SDS011;52177;55.968;37.498;2023-05-29T02:08:12;9.30;;;3.70;;
65545;SDS011;52177;55.968;37.498;2023-05-29T02:08:43;7.30;;;3.47;;
65545;SDS011;52177;55.968;37.498;2023-05-29T02:09:13;6.75;;;3.40;;
65545;SDS011;52177;55.968;37.498;2023-05-29T02:09:44;8.68;;;3.53;;
65545;SDS011;52177;55.968;37.498;2023-05-29T02:10:14;6.35;;;3.45;;
65545;SDS011;52177;55.968;37.498;2023-05-29T02:10:45;4.78;;;3.38;;
65545;SDS011;52177;55.968;37.498;2023-05-29T02:11:15;5.13;;;3.30;;
65545;SDS011;52177;55.968;37.498;2023-05-29T02:11:46;4.93;;;3.50;;
65545;SDS011;52177;55.968;37.498;2023-05-29T02:12:16;5.70;;;3.58;;
65545;SDS011;52177;55.968;37.498;2023-05-29T02:12:46;6.00;;;3.75;;
65545;SDS011;52177;55.968;37.498;2023-05-29T02:13:17;6.53;;;3.33;;
65545;SDS011;52177;55.968;37.498;2023-05-29T02:13:47;3.90;;;3.10;;
65545;SDS011;52177;55.968;37.498;2023-05-29T02:14:18;3.72;;;3.30;;
65545;SDS011;52177;55.968;37.498;2023-05-29T02:14:48;6.18;;;3.58;;
65545;SDS011;52177;55.968;37.498;2023-05-29T02:15:19;5.82;;;3.50;;
65545;SDS011;52177;55.968;37.498;2023-05-29T02:15:49;4.20;;;3.13;;
65545;SDS011;52177;55.968;37.498;2023-05-29T02:16:19;5.00;;;3.25;;
65545;SDS011;52177;55.968;37.498;2023-05-29T02:16:50;3.95;;;3.22;;
65545;SDS011;52177;55.968;37.498;2023-05-29T02:17:21;3.58;;;3.28;;
65545;SDS011;52177;55.968;37.498;2023-05-29T02:17:52;10.98;;;3.88;;
65545;SDS011;52177;55.968;37.498;2023-05-29T02:18:22;4.60;;;3.70;;
65545;SDS011;52177;55.968;37.498;2023-05-29T02:18:53;4.18;;;3.45;;
65545;SDS011;52177;55.968;37.498;2023-05-29T02:19:23;8.43;;;3.78;;
65545;SDS011;52177;55.968;37.498;2023-05-29T02:19:55;7.07;;;4.00;;
65545;SDS011;52177;55.968;37.498;2023-05-29T02:20:25;4.68;;;3.30;;
65545;SDS011;52177;55.968;37.498;2023-05-29T02:20:56;4.30;;;3.63;;
65545;SDS011;52177;55.968;37.498;2023-05-29T02:21:27;7.80;;;3.90;;
65545;SDS011;52177;55.968;37.498;2023-05-29T02:21:57;7.22;;;3.40;;
65545;SDS011;52177;55.968;37.498;2023-05-29T02:22:27;4.35;;;3.55;;
65545;SDS011;52177;55.968;37.498;2023-05-29T02:22:58;5.35;;;4.30;;
65545;SDS011;52177;55.968;37.498;2023-05-29T02:23:28;9.65;;;3.85;;
65545;SDS011;52177;55.968;37.498;2023-05-29T02:23:59;5.63;;;3.78;;
65545;SDS011;52177;55.968;37.498;2023-05-29T02:24:29;4.38;;;3.40;;
65545;SDS011;52177;55.968;37.498;2023-05-29T02:25:00;4.65;;;3.97;;
65545;SDS011;52177;55.968;37.498;2023-05-29T02:25:30;4.15;;;3.75;;
65545;SDS011;52177;55.968;37.498;2023-05-29T02:26:01;4.68;;;3.78;;
65545;SDS011;52177;55.968;37.498;2023-05-29T02:26:31;5.90;;;3.80;;
65545;SDS011;52177;55.968;37.498;2023-05-29T02:27:01;4.93;;;4.10;;
65545;SDS011;52177;55.968;37.498;2023-05-29T02:27:33;6.15;;;4.15;;
65545;SDS011;52177;55.968;37.498;2023-05-29T02:28:03;7.65;;;4.10;;
65545;SDS011;52177;55.968;37.498;2023-05-29T02:28:34;5.72;;;4.00;;
65545;SDS011;52177;55.968;37.498;2023-05-29T02:29:04;6.03;;;4.03;;
65545;SDS011;52177;55.968;37.498;2023-05-29T02:29:35;5.18;;;3.75;;
65545;SDS011;52177;55.968;37.498;2023-05-29T02:30:06;4.45;;;3.92;;
65545;SDS011;52177;55.968;37.498;2023-05-29T02:30:38;6.10;;;4.00;;
65545;SDS011;52177;55.968;37.498;2023-05-29T02:31:08;4.68;;;4.00;;
65545;SDS011;52177;55.968;37.498;2023-05-29T02:31:39;4.93;;;4.00;;
65545;SDS011;52177;55.968;37.498;2023-05-29T02:32:09;7.85;;;3.70;;
65545;SDS011;52177;55.968;37.498;2023-05-29T02:32:40;4.03;;;3.60;;
65545;SDS011;52177;55.968;37.498;2023-05-29T02:33:10;5.15;;;3.88;;
65545;SDS011;52177;55.968;37.498;2023-05-29T02:33:41;6.35;;;4.07;;
65545;SDS011;52177;55.968;37.498;2023-05-29T02:34:11;7.47;;;4.40;;
65545;SDS011;52177;55.968;37.498;2023-05-29T02:34:41;4.55;;;3.95;;
65545;SDS011;52177;55.968;37.498;2023-05-29T02:35:12;8.48;;;4.10;;
65545;SDS011;52177;55.968;37.498;2023-05-29T02:35:47;6.45;;;4.30;;
65545;SDS011;52177;55.968;37.498;2023-05-29T02:36:17;5.80;;;4.00;;
65545;SDS011;52177;55.968;37.498;2023-05-29T02:36:48;8.65;;;4.38;;
65545;SDS011;52177;55.968;37.498;2023-05-29T02:37:19;5.47;;;3.83;;
65545;SDS011;52177;55.968;37.498;2023-05-29T02:37:49;6.18;;;3.90;;
65545;SDS011;52177;55.968;37.498;2023-05-29T02:38:20;8.27;;;4.05;;
65545;SDS011;52177;55.968;37.498;2023-05-29T02:38:51;6.20;;;4.40;;
65545;SDS011;52177;55.968;37.498;2023-05-29T02:39:21;5.72;;;3.78;;
65545;SDS011;52177;55.968;37.498;2023-05-29T02:39:51;6.00;;;4.53;;
65545;SDS011;52177;55.968;37.498;2023-05-29T02:40:22;5.40;;;4.38;;
65545;SDS011;52177;55.968;37.498;2023-05-29T02:40:53;6.53;;;3.97;;
65545;SDS011;52177;55.968;37.498;2023-05-29T02:41:23;6.97;;;4.30;;
65545;SDS011;52177;55.968;37.498;2023-05-29T02:41:54;6.85;;;4.32;;
65545;SDS011;52177;55.968;37.498;2023-05-29T02:42:25;5.43;;;3.95;;
65545;SDS011;52177;55.968;37.498;2023-05-29T02:42:55;7.47;;;4.50;;
65545;SDS011;52177;55.968;37.498;2023-05-29T02:43:25;5.15;;;3.90;;
65545;SDS011;52177;55.968;37.498;2023-05-29T02:43:56;6.68;;;3.75;;
65545;SDS011;52177;55.968;37.498;2023-05-29T02:44:26;7.35;;;4.22;;
65545;SDS011;52177;55.968;37.498;2023-05-29T02:44:56;6.97;;;3.63;;
65545;SDS011;52177;55.968;37.498;2023-05-29T02:45:26;5.72;;;3.92;;
65545;SDS011;52177;55.968;37.498;2023-05-29T02:45:57;7.43;;;4.07;;
65545;SDS011;52177;55.968;37.498;2023-05-29T02:46:27;5.10;;;4.35;;
65545;SDS011;52177;55.968;37.498;2023-05-29T02:46:57;4.55;;;3.92;;
65545;SDS011;52177;55.968;37.498;2023-05-29T02:47:28;5.28;;;2.78;;
65545;SDS011;52177;55.968;37.498;2023-05-29T02:47:59;8.38;;;2.90;;
65545;SDS011;52177;55.968;37.498;2023-05-29T02:48:29;6.75;;;2.20;;
65545;SDS011;52177;55.968;37.498;2023-05-29T02:49:00;4.93;;;2.70;;
65545;SDS011;52177;55.968;37.498;2023-05-29T02:49:30;5.28;;;2.80;;
65545;SDS011;52177;55.968;37.498;2023-05-29T02:50:01;6.38;;;2.70;;
65545;SDS011;52177;55.968;37.498;2023-05-29T02:50:32;4.95;;;2.55;;
65545;SDS011;52177;55.968;37.498;2023-05-29T02:51:02;4.40;;;2.63;;
65545;SDS011;52177;55.968;37.498;2023-05-29T02:51:33;4.07;;;2.70;;
65545;SDS011;52177;55.968;37.498;2023-05-29T02:52:03;5.15;;;2.72;;
65545;SDS011;52177;55.968;37.498;2023-05-29T02:52:34;3.42;;;2.45;;
65545;SDS011;52177;55.968;37.498;2023-05-29T02:53:06;3.92;;;2.00;;
65545;SDS011;52177;55.968;37.498;2023-05-29T02:53:36;4.53;;;2.40;;
65545;SDS011;52177;55.968;37.498;2023-05-29T02:54:07;4.47;;;2.40;;
65545;SDS011;52177;55.968;37.498;2023-05-29T02:54:37;5.13;;;2.47;;
65545;SDS011;52177;55.968;37.498;2023-05-29T02:55:08;6.13;;;2.10;;
65545;SDS011;52177;55.968;37.498;2023-05-29T02:55:38;5.50;;;2.75;;
65545;SDS011;52177;55.968;37.498;2023-05-29T02:56:09;6.80;;;2.42;;
65545;SDS011;52177;55.968;37.498;2023-05-29T02:56:40;5.63;;;2.58;;
65545;SDS011;52177;55.968;37.498;2023-05-29T02:57:10;6.15;;;2.38;;
65545;SDS011;52177;55.968;37.498;2023-05-29T02:57:41;3.95;;;2.38;;
65545;SDS011;52177;55.968;37.498;2023-05-29T02:58:11;4.47;;;2.67;;
65545;SDS011;52177;55.968;37.498;2023-05-29T02:58:41;2.75;;;2.25;;
65545;SDS011;52177;55.968;37.498;2023-05-29T02:59:12;7.05;;;2.50;;
65545;SDS011;52177;55.968;37.498;2023-05-29T02:59:42;4.57;;;2.45;;
65545;SDS011;52177;55.968;37.498;2023-05-29T03:00:14;4.47;;;2.28;;
65545;SDS011;52177;55.968;37.498;2023-05-29T03:00:44;7.32;;;2.28;;
65545;SDS011;52177;55.968;37.498;2023-05-29T03:01:16;5.05;;;2.08;;
65545;SDS011;52177;55.968;37.498;2023-05-29T03:01:47;3.33;;;2.10;;
65545;SDS011;52177;55.968;37.498;2023-05-29T03:02:18;5.75;;;2.20;;
65545;SDS011;52177;55.968;37.498;2023-05-29T03:02:48;4.20;;;2.00;;
65545;SDS011;52177;55.968;37.498;2023-05-29T03:03:19;2.17;;;1.65;;
65545;SDS011;52177;55.968;37.498;2023-05-29T03:03:49;4.82;;;2.05;;
65545;SDS011;52177;55.968;37.498;2023-05-29T03:04:20;5.03;;;1.80;;
65545;SDS011;52177;55.968;37.498;2023-05-29T03:04:51;9.43;;;2.33;;
65545;SDS011;52177;55.968;37.498;2023-05-29T03:05:23;6.63;;;2.08;;
65545;SDS011;52177;55.968;37.498;2023-05-29T03:05:53;2.38;;;1.88;;
65545;SDS011;52177;55.968;37.498;2023-05-29T03:06:24;2.55;;;1.85;;
65545;SDS011;52177;55.968;37.498;2023-05-29T03:06:54;5.22;;;2.03;;
65545;SDS011;52177;55.968;37.498;2023-05-29T03:07:25;5.50;;;2.08;;
65545;SDS011;52177;55.968;37.498;2023-05-29T03:07:55;4.95;;;2.00;;
65545;SDS011;52177;55.968;37.498;2023-05-29T03:08:26;1.92;;;1.58;;
65545;SDS011;52177;55.968;37.498;2023-05-29T03:08:58;2.83;;;1.95;;
65545;SDS011;52177;55.968;37.498;2023-05-29T03:09:29;5.30;;;1.83;;
65545;SDS011;52177;55.968;37.498;2023-05-29T03:10:00;4.75;;;2.20;;
65545;SDS011;52177;55.968;37.498;2023-05-29T03:10:30;4.75;;;2.33;;
65545;SDS011;52177;55.968;37.498;2023-05-29T03:11:01;4.78;;;2.20;;
65545;SDS011;52177;55.968;37.498;2023-05-29T03:11:32;4.05;;;1.90;;
65545;SDS011;52177;55.968;37.498;2023-05-29T03:12:04;4.70;;;1.70;;
65545;SDS011;52177;55.968;37.498;2023-05-29T03:12:35;5.78;;;1.95;;
65545;SDS011;52177;55.968;37.498;2023-05-29T03:13:05;2.95;;;1.55;;